Aviation Digital Data Service (ADDS)

Output produced by TAFs form (0919 UTC 13 December 2017)
found at http://www.aviationweather.gov/adds/tafs/
 
KBHM 130853Z 00000KT 10SM CLR M01/M08 A3012 RMK AO2 SLP202 T10061083 58006
KBHM 130540Z 1306/1406 32008KT P6SM SKC 
     FM131500 22010KT P6SM SKC 
     FM131900 21013G20KT P6SM SKC 
     FM140100 22008KT P6SM SKC